Time;durP1;ratioP1;P1;durP2;ratioP2;P2;SDS_P1;SDS_P2;PMS_P1;PMS_P2;Temp;Humidity;BMP_temperature;BMP_pressure;BME280_temperature;BME280_humidity;BME280_pressure;Samples;Min_cycle;Max_cycle;Signal;HPM_P1;HPM_P2
2021/05/15 00:00:53;;;;;;;1.52;1.20;;;;;;;;;;10293978;28;20081;-62
2021/05/15 00:05:50;;;;;;;3.35;1.10;;;;;;;;;;10279278;28;20049;-62
2021/05/15 00:10:48;;;;;;;2.90;1.30;;;;;;;;;;10277892;28;20076;-63
2021/05/15 00:15:45;;;;;;;3.03;1.40;;;;;;;;;;10278486;28;20083;-63
2021/05/15 00:20:41;;;;;;;4.28;1.52;;;;;;;;;;10277843;28;20044;-61
2021/05/15 00:25:38;;;;;;;4.93;1.10;;;;;;;;;;10276862;28;20068;-63
2021/05/15 00:30:35;;;;;;;1.52;1.40;;;;;;;;;;10277547;28;20446;-63
2021/05/15 00:35:32;;;;;;;1.92;1.17;;;;;;;;;;10276717;28;20080;-63
2021/05/15 00:40:29;;;;;;;1.98;1.20;;;;;;;;;;10277952;28;20072;-63
2021/05/15 00:45:25;;;;;;;1.90;0.98;;;;;;;;;;10276683;28;20077;-63
2021/05/15 00:50:23;;;;;;;3.92;1.40;;;;;;;;;;10277739;28;20069;-62
2021/05/15 00:55:19;;;;;;;3.55;1.70;;;;;;;;;;10277448;28;20091;-62
2021/05/15 01:00:16;;;;;;;2.33;1.20;;;;;;;;;;10277377;28;20085;-63
2021/05/15 01:05:13;;;;;;;4.15;1.40;;;;;;;;;;10278098;28;20080;-63
2021/05/15 01:10:11;;;;;;;2.53;1.10;;;;;;;;;;10277729;28;20492;-63
2021/05/15 01:15:09;;;;;;;5.85;1.52;;;;;;;;;;10277529;28;20080;-62
2021/05/15 01:20:06;;;;;;;1.27;1.10;;;;;;;;;;10277520;28;20516;-63
2021/05/15 01:25:04;;;;;;;1.50;1.15;;;;;;;;;;10287605;28;20068;-63
2021/05/15 01:30:00;;;;;;;2.60;1.42;;;;;;;;;;10307609;28;20044;-63
2021/05/15 01:34:57;;;;;;;3.35;1.30;;;;;;;;;;10283740;28;20072;-63
2021/05/15 01:39:55;;;;;;;2.08;1.20;;;;;;;;;;10276112;28;20056;-63
2021/05/15 01:44:53;;;;;;;1.95;1.30;;;;;;;;;;10277139;28;20087;-63
2021/05/15 01:49:49;;;;;;;2.10;1.02;;;;;;;;;;10276637;28;20041;-63
2021/05/15 01:54:46;;;;;;;3.15;1.45;;;;;;;;;;10275549;28;20072;-63
2021/05/15 01:59:42;;;;;;;4.22;1.42;;;;;;;;;;10276122;28;20477;-63
2021/05/15 02:04:40;;;;;;;1.15;0.93;;;;;;;;;;10276196;28;20525;-63
2021/05/15 02:09:36;;;;;;;2.55;1.17;;;;;;;;;;10276369;28;20072;-63
2021/05/15 02:14:33;;;;;;;1.85;1.40;;;;;;;;;;10282696;28;20077;-62
2021/05/15 02:19:30;;;;;;;1.20;1.05;;;;;;;;;;10308705;28;20037;-63
2021/05/15 02:24:27;;;;;;;2.83;1.88;;;;;;;;;;10275964;28;20052;-63
2021/05/15 02:29:24;;;;;;;2.90;1.42;;;;;;;;;;10275783;28;20490;-63
2021/05/15 02:34:20;;;;;;;1.88;1.40;;;;;;;;;;10274082;28;20067;-63
2021/05/15 02:39:17;;;;;;;2.17;1.13;;;;;;;;;;10275696;28;20426;-62
2021/05/15 02:44:14;;;;;;;3.33;1.55;;;;;;;;;;10275565;28;20505;-63
2021/05/15 02:49:11;;;;;;;3.45;2.03;;;;;;;;;;10279399;28;20041;-63
2021/05/15 02:54:07;;;;;;;1.65;1.30;;;;;;;;;;10283331;28;20541;-62
2021/05/15 02:59:04;;;;;;;3.30;1.50;;;;;;;;;;10282422;28;20095;-63
2021/05/15 03:04:01;;;;;;;1.40;1.30;;;;;;;;;;10282514;28;20398;-63
2021/05/15 03:08:58;;;;;;;2.85;1.60;;;;;;;;;;10282368;28;20068;-63
2021/05/15 03:13:54;;;;;;;9.88;1.52;;;;;;;;;;10282072;28;20084;-62
2021/05/15 03:18:51;;;;;;;1.50;1.35;;;;;;;;;;10281831;28;20045;-62
2021/05/15 03:23:48;;;;;;;2.22;1.55;;;;;;;;;;10281748;28;20064;-63
2021/05/15 03:28:45;;;;;;;8.10;1.80;;;;;;;;;;10281601;28;20532;-62
2021/05/15 03:33:41;;;;;;;2.40;1.50;;;;;;;;;;10279665;28;20077;-63
2021/05/15 03:38:38;;;;;;;3.95;1.58;;;;;;;;;;10297303;28;20076;-63
2021/05/15 03:43:35;;;;;;;5.07;1.48;;;;;;;;;;10314851;28;20263;-63
2021/05/15 03:48:32;;;;;;;2.65;1.40;;;;;;;;;;10280618;28;20069;-63
2021/05/15 03:53:28;;;;;;;1.70;1.05;;;;;;;;;;10284800;28;20076;-63
2021/05/15 03:58:25;;;;;;;4.00;1.33;;;;;;;;;;10295537;28;20080;-64
2021/05/15 04:03:22;;;;;;;2.67;1.30;;;;;;;;;;10290345;28;20052;-63
2021/05/15 04:08:19;;;;;;;2.97;1.40;;;;;;;;;;10283129;28;20102;-63
2021/05/15 04:13:23;;;;;;;4.47;1.33;;;;;;;;;;10292713;28;20091;-63
2021/05/15 04:18:19;;;;;;;2.38;1.55;;;;;;;;;;10299142;28;20084;-63
2021/05/15 04:23:17;;;;;;;5.28;1.95;;;;;;;;;;10282963;28;20041;-63
2021/05/15 04:28:13;;;;;;;3.10;1.98;;;;;;;;;;10277930;28;20072;-62
2021/05/15 04:33:10;;;;;;;2.28;1.60;;;;;;;;;;10296442;28;20669;-64
2021/05/15 04:38:07;;;;;;;2.83;1.55;;;;;;;;;;10311753;28;20075;-63
2021/05/15 04:43:04;;;;;;;2.60;1.70;;;;;;;;;;10315089;28;20079;-63
2021/05/15 04:48:01;;;;;;;4.90;1.92;;;;;;;;;;10316369;28;20088;-63
2021/05/15 04:52:57;;;;;;;3.50;1.45;;;;;;;;;;10318982;28;20044;-63
2021/05/15 04:57:54;;;;;;;9.85;3.08;;;;;;;;;;10317929;28;20057;-63
2021/05/15 05:02:51;;;;;;;4.50;2.35;;;;;;;;;;10318437;28;20051;-62
2021/05/15 05:07:48;;;;;;;6.35;1.98;;;;;;;;;;10318000;28;20041;-63
2021/05/15 05:12:44;;;;;;;2.78;2.00;;;;;;;;;;10316802;28;20044;-62
2021/05/15 05:17:43;;;;;;;2.70;1.70;;;;;;;;;;10317929;28;20087;-63
2021/05/15 05:22:40;;;;;;;3.10;1.65;;;;;;;;;;10317842;28;20052;-63
2021/05/15 05:27:37;;;;;;;2.58;1.95;;;;;;;;;;10317372;28;20090;-64
2021/05/15 05:32:34;;;;;;;2.83;1.65;;;;;;;;;;10317143;28;20520;-64
2021/05/15 05:37:30;;;;;;;5.72;2.33;;;;;;;;;;10316591;28;20072;-63
2021/05/15 05:42:28;;;;;;;13.75;9.73;;;;;;;;;;10315894;28;20056;-63
2021/05/15 05:47:24;;;;;;;8.07;5.43;;;;;;;;;;10316709;28;20044;-63
2021/05/15 05:52:21;;;;;;;2.63;1.20;;;;;;;;;;10317073;28;20047;-61
2021/05/15 05:57:17;;;;;;;4.38;1.70;;;;;;;;;;10316339;28;20072;-60
2021/05/15 06:02:15;;;;;;;2.17;1.65;;;;;;;;;;10316535;28;20445;-60
2021/05/15 06:07:13;;;;;;;3.60;1.83;;;;;;;;;;10316461;28;20068;-62
2021/05/15 06:12:19;;;;;;;2.50;1.63;;;;;;;;;;10316919;28;20048;-62
2021/05/15 06:17:17;;;;;;;6.45;2.28;;;;;;;;;;10318735;28;20041;-59
2021/05/15 06:22:14;;;;;;;4.68;2.25;;;;;;;;;;10319470;28;20138;-60
2021/05/15 06:27:10;;;;;;;11.73;2.97;;;;;;;;;;10324538;28;20044;-59
2021/05/15 06:32:07;;;;;;;6.85;2.45;;;;;;;;;;10323617;28;20037;-57
2021/05/15 06:37:04;;;;;;;9.00;3.35;;;;;;;;;;10324373;28;20520;-58
2021/05/15 06:42:01;;;;;;;9.93;2.30;;;;;;;;;;10324702;28;20049;-59
2021/05/15 06:46:57;;;;;;;6.18;2.10;;;;;;;;;;10323413;28;20528;-59
2021/05/15 06:51:54;;;;;;;7.57;1.95;;;;;;;;;;10324235;28;20040;-59
2021/05/15 06:56:52;;;;;;;4.45;2.05;;;;;;;;;;10323724;28;20080;-59
2021/05/15 07:01:48;;;;;;;7.40;2.38;;;;;;;;;;10323862;28;20076;-59
2021/05/15 07:06:45;;;;;;;6.03;2.40;;;;;;;;;;10323261;28;20481;-58
2021/05/15 07:11:41;;;;;;;5.00;2.08;;;;;;;;;;10323335;28;20485;-59
2021/05/15 07:16:39;;;;;;;7.38;2.15;;;;;;;;;;10323074;28;20079;-58
2021/05/15 07:21:35;;;;;;;14.43;2.78;;;;;;;;;;10322932;28;20417;-59
2021/05/15 07:26:32;;;;;;;8.77;2.25;;;;;;;;;;10322446;28;20045;-59
2021/05/15 07:31:28;;;;;;;13.05;5.60;;;;;;;;;;10322067;28;20051;-58
2021/05/15 07:36:26;;;;;;;7.25;2.67;;;;;;;;;;10320973;28;20076;-58
2021/05/15 07:41:25;;;;;;;7.30;2.45;;;;;;;;;;10322037;28;20044;-58
2021/05/15 07:46:21;;;;;;;8.07;4.68;;;;;;;;;;10321171;28;20048;-62
2021/05/15 07:51:20;;;;;;;5.43;2.00;;;;;;;;;;10321664;28;20476;-62
2021/05/15 07:56:18;;;;;;;12.80;4.40;;;;;;;;;;10321438;28;20084;-62
2021/05/15 08:01:15;;;;;;;9.15;2.55;;;;;;;;;;10321421;28;20048;-62
2021/05/15 08:06:11;;;;;;;9.88;4.60;;;;;;;;;;10321003;28;20424;-62
2021/05/15 08:11:08;;;;;;;9.05;4.90;;;;;;;;;;10320726;28;20044;-62
2021/05/15 08:16:05;;;;;;;6.60;2.78;;;;;;;;;;10320620;28;20072;-62
2021/05/15 08:21:02;;;;;;;6.90;2.92;;;;;;;;;;10320265;28;20063;-62
2021/05/15 08:25:58;;;;;;;12.02;6.18;;;;;;;;;;10320178;28;20049;-62
2021/05/15 08:30:55;;;;;;;4.55;2.75;;;;;;;;;;10319138;28;20044;-62
2021/05/15 08:35:52;;;;;;;4.38;2.65;;;;;;;;;;10319622;28;20080;-62
2021/05/15 08:40:49;;;;;;;10.20;5.68;;;;;;;;;;10319574;28;20397;-62
2021/05/15 08:45:48;;;;;;;10.48;5.15;;;;;;;;;;10318484;28;20425;-61
2021/05/15 08:50:45;;;;;;;14.88;4.45;;;;;;;;;;10318878;28;20045;-63
2021/05/15 08:55:44;;;;;;;7.32;4.40;;;;;;;;;;10316994;28;20086;-62
2021/05/15 09:00:41;;;;;;;7.78;4.32;;;;;;;;;;10318546;28;20420;-61
2021/05/15 09:05:39;;;;;;;7.05;3.42;;;;;;;;;;10317698;28;20509;-62
2021/05/15 09:10:38;;;;;;;8.57;4.22;;;;;;;;;;10318294;28;20472;-62
2021/05/15 09:15:38;;;;;;;9.68;4.55;;;;;;;;;;10318024;28;20453;-62
2021/05/15 09:20:37;;;;;;;10.38;3.25;;;;;;;;;;10317585;28;20045;-60
2021/05/15 09:25:35;;;;;;;6.93;3.58;;;;;;;;;;10317675;28;20052;-61
2021/05/15 09:30:33;;;;;;;7.10;3.58;;;;;;;;;;10317715;28;20044;-61
2021/05/15 09:35:32;;;;;;;5.15;2.97;;;;;;;;;;10317909;28;20094;-62
2021/05/15 09:40:30;;;;;;;9.25;2.13;;;;;;;;;;10317542;28;20103;-61
2021/05/15 09:45:39;;;;;;;10.07;2.42;;;;;;;;;;10315967;28;20417;-61
2021/05/15 09:50:38;;;;;;;7.07;3.33;;;;;;;;;;10317248;28;20044;-61
2021/05/15 09:55:37;;;;;;;7.78;3.28;;;;;;;;;;10316891;28;20079;-60
2021/05/15 10:00:42;;;;;;;6.72;2.45;;;;;;;;;;10317126;28;20075;-60
2021/05/15 10:05:40;;;;;;;6.10;2.63;;;;;;;;;;10317113;28;20048;-61
2021/05/15 10:10:38;;;;;;;3.85;1.85;;;;;;;;;;10316686;28;20068;-61
2021/05/15 10:15:36;;;;;;;4.63;2.17;;;;;;;;;;10316803;28;20102;-60
2021/05/15 10:20:34;;;;;;;15.18;6.20;;;;;;;;;;10316639;28;20072;-61
2021/05/15 10:25:33;;;;;;;3.60;2.58;;;;;;;;;;10316395;28;20052;-61
2021/05/15 10:30:31;;;;;;;11.10;2.97;;;;;;;;;;10316391;28;20401;-61
2021/05/15 10:35:29;;;;;;;16.90;7.65;;;;;;;;;;10315587;28;20481;-61
2021/05/15 10:40:28;;;;;;;5.40;3.15;;;;;;;;;;10316258;28;20417;-62
2021/05/15 10:45:33;;;;;;;4.00;2.95;;;;;;;;;;10316226;28;20516;-62
2021/05/15 10:50:32;;;;;;;8.15;3.05;;;;;;;;;;10315482;28;20064;-63
2021/05/15 10:55:32;;;;;;;7.07;3.00;;;;;;;;;;10315758;28;20079;-63
2021/05/15 11:00:30;;;;;;;3.97;2.25;;;;;;;;;;10316106;28;20330;-63
2021/05/15 11:05:40;;;;;;;3.47;2.33;;;;;;;;;;10315149;28;20487;-62
2021/05/15 11:10:38;;;;;;;11.90;3.70;;;;;;;;;;10320126;28;20052;-62
2021/05/15 11:15:36;;;;;;;5.60;2.45;;;;;;;;;;10322804;28;20044;-63
2021/05/15 11:20:41;;;;;;;5.00;2.00;;;;;;;;;;10322656;28;20040;-62
2021/05/15 11:25:52;;;;;;;3.45;1.90;;;;;;;;;;10322735;28;20503;-62
2021/05/15 11:30:50;;;;;;;6.45;2.38;;;;;;;;;;10322327;28;20044;-61
2021/05/15 11:35:49;;;;;;;2.45;1.75;;;;;;;;;;10320329;28;20053;-61
2021/05/15 11:40:54;;;;;;;4.43;1.85;;;;;;;;;;10319814;28;20044;-61
2021/05/15 11:45:52;;;;;;;3.95;2.25;;;;;;;;;;10322310;28;20056;-60
2021/05/15 11:51:01;;;;;;;2.95;1.63;;;;;;;;;;10321598;28;20036;-61
2021/05/15 11:55:58;;;;;;;4.40;1.50;;;;;;;;;;10321482;28;20092;-61
2021/05/15 12:00:56;;;;;;;3.42;1.30;;;;;;;;;;10321644;28;20052;-62
2021/05/15 12:05:55;;;;;;;7.97;2.40;;;;;;;;;;10321024;28;20497;-61
2021/05/15 12:11:01;;;;;;;6.35;1.50;;;;;;;;;;10319983;28;20041;-61
2021/05/15 12:16:01;;;;;;;5.68;1.67;;;;;;;;;;10320556;28;20470;-61
2021/05/15 12:21:04;;;;;;;6.32;1.85;;;;;;;;;;10320326;28;20041;-61
2021/05/15 12:26:03;;;;;;;8.23;1.43;;;;;;;;;;10318420;28;20049;-61
2021/05/15 12:31:01;;;;;;;3.13;1.05;;;;;;;;;;10318358;28;20513;-61
2021/05/15 12:36:00;;;;;;;2.90;1.48;;;;;;;;;;10319659;28;20080;-61
2021/05/15 12:41:09;;;;;;;3.60;1.48;;;;;;;;;;10319428;28;20049;-61
2021/05/15 12:46:07;;;;;;;4.43;1.27;;;;;;;;;;10318908;28;20036;-61
2021/05/15 12:51:06;;;;;;;3.67;0.80;;;;;;;;;;10318889;28;20409;-61
2021/05/15 12:56:04;;;;;;;4.00;1.90;;;;;;;;;;10318898;28;20080;-61
2021/05/15 13:01:03;;;;;;;4.97;0.95;;;;;;;;;;10318975;28;20059;-62
2021/05/15 13:06:11;;;;;;;1.70;1.58;;;;;;;;;;10318357;28;20040;-63
2021/05/15 13:11:10;;;;;;;2.97;1.80;;;;;;;;;;10318603;28;20083;-63
2021/05/15 13:16:09;;;;;;;1.60;1.13;;;;;;;;;;10318191;28;20087;-63
2021/05/15 13:21:08;;;;;;;3.88;1.50;;;;;;;;;;10302441;28;20425;-63
2021/05/15 13:26:06;;;;;;;9.77;4.78;;;;;;;;;;10286590;28;20133;-63
2021/05/15 13:31:05;;;;;;;12.75;5.35;;;;;;;;;;10283243;28;20083;-62
2021/05/15 13:36:04;;;;;;;9.95;3.92;;;;;;;;;;10282375;28;20079;-60
2021/05/15 13:41:02;;;;;;;8.73;3.13;;;;;;;;;;10300668;28;20047;-62
2021/05/15 13:46:00;;;;;;;5.28;2.85;;;;;;;;;;10290721;28;20103;-62
2021/05/15 13:50:59;;;;;;;3.92;1.77;;;;;;;;;;10282173;28;20072;-63
2021/05/15 13:56:03;;;;;;;6.63;1.97;;;;;;;;;;10290894;28;20072;-62
2021/05/15 14:01:01;;;;;;;3.03;2.15;;;;;;;;;;10302173;28;20059;-63
2021/05/15 14:05:59;;;;;;;5.63;3.20;;;;;;;;;;10303846;28;20091;-63
2021/05/15 14:10:57;;;;;;;4.32;2.70;;;;;;;;;;10293032;28;20072;-63
2021/05/15 14:15:56;;;;;;;5.47;1.70;;;;;;;;;;10287002;28;20520;-62
2021/05/15 14:20:54;;;;;;;5.60;2.20;;;;;;;;;;10290205;28;20479;-62
2021/05/15 14:25:52;;;;;;;4.15;2.00;;;;;;;;;;10292214;28;20076;-62
2021/05/15 14:30:50;;;;;;;3.20;2.10;;;;;;;;;;10291605;28;20060;-62
2021/05/15 14:35:49;;;;;;;4.63;1.52;;;;;;;;;;10306353;28;20517;-63
2021/05/15 14:40:49;;;;;;;4.63;2.25;;;;;;;;;;10281179;28;20068;-64
2021/05/15 14:45:47;;;;;;;11.52;2.20;;;;;;;;;;10286066;28;20045;-63
2021/05/15 14:50:44;;;;;;;4.22;1.75;;;;;;;;;;10301632;28;20069;-62
2021/05/15 14:55:43;;;;;;;4.35;1.90;;;;;;;;;;10296336;28;20069;-62
2021/05/15 15:00:41;;;;;;;7.22;3.80;;;;;;;;;;10295880;28;20053;-61
2021/05/15 15:05:39;;;;;;;7.85;1.92;;;;;;;;;;10311268;28;20083;-63
2021/05/15 15:10:37;;;;;;;4.07;2.38;;;;;;;;;;10318616;28;20118;-62
2021/05/15 15:15:36;;;;;;;2.58;2.00;;;;;;;;;;10318700;28;20843;-63
2021/05/15 15:20:35;;;;;;;8.25;3.17;;;;;;;;;;10318664;28;20602;-63
2021/05/15 15:25:34;;;;;;;8.80;2.88;;;;;;;;;;10322043;28;20056;-63
2021/05/15 15:30:32;;;;;;;6.35;2.42;;;;;;;;;;10322483;28;20520;-63
2021/05/15 15:35:32;;;;;;;3.85;2.15;;;;;;;;;;10321880;28;20519;-63
2021/05/15 15:40:41;;;;;;;8.65;2.20;;;;;;;;;;10321692;28;20048;-64
2021/05/15 15:51:42;;;;;;;12.00;2.22;;;;;;;;;;10322251;28;20053;-64
2021/05/15 15:56:40;;;;;;;5.13;3.13;;;;;;;;;;10320435;28;20084;-63
2021/05/15 16:01:38;;;;;;;3.90;2.28;;;;;;;;;;10321078;28;20084;-63
2021/05/15 16:06:36;;;;;;;3.92;2.53;;;;;;;;;;10320427;28;20045;-64
2021/05/15 16:11:40;;;;;;;6.30;3.08;;;;;;;;;;10320328;28;20059;-64
2021/05/15 16:16:38;;;;;;;8.75;2.45;;;;;;;;;;10319930;28;20087;-63
2021/05/15 16:21:35;;;;;;;5.97;3.78;;;;;;;;;;10319741;28;20045;-64
2021/05/15 16:26:34;;;;;;;3.45;1.83;;;;;;;;;;10319684;28;20064;-64
2021/05/15 16:31:33;;;;;;;4.18;2.67;;;;;;;;;;10319208;28;20079;-61
2021/05/15 16:36:31;;;;;;;7.15;4.13;;;;;;;;;;10318986;28;20528;-63
2021/05/15 16:41:28;;;;;;;8.73;4.05;;;;;;;;;;10318938;28;20059;-63
2021/05/15 16:46:26;;;;;;;16.30;12.45;;;;;;;;;;10318709;28;20051;-64
2021/05/15 16:51:25;;;;;;;5.90;3.88;;;;;;;;;;10319010;28;20060;-63
2021/05/15 16:56:23;;;;;;;5.63;2.08;;;;;;;;;;10318761;28;20084;-64
2021/05/15 17:01:22;;;;;;;3.55;2.50;;;;;;;;;;10318454;28;20485;-63
2021/05/15 17:06:37;;;;;;;3.28;1.85;;;;;;;;;;10316917;28;20531;-64
2021/05/15 17:11:35;;;;;;;8.00;3.28;;;;;;;;;;10317520;28;20521;-64
2021/05/15 17:16:33;;;;;;;9.23;3.40;;;;;;;;;;10318027;28;20076;-64
2021/05/15 17:21:31;;;;;;;5.93;2.38;;;;;;;;;;10317283;28;20413;-64
2021/05/15 17:26:30;;;;;;;10.60;5.75;;;;;;;;;;10317340;28;20055;-64
2021/05/15 17:31:29;;;;;;;7.15;4.70;;;;;;;;;;10317287;28;20420;-64
2021/05/15 17:36:27;;;;;;;4.72;2.97;;;;;;;;;;10317362;28;20080;-64
2021/05/15 17:41:25;;;;;;;7.22;4.25;;;;;;;;;;10317133;28;20052;-64
2021/05/15 17:46:23;;;;;;;4.70;2.85;;;;;;;;;;10317810;28;20076;-64
2021/05/15 17:51:21;;;;;;;9.63;6.47;;;;;;;;;;10316625;28;20052;-64
2021/05/15 17:56:20;;;;;;;6.35;2.65;;;;;;;;;;10316934;28;20071;-64
2021/05/15 18:01:19;;;;;;;5.47;3.38;;;;;;;;;;10317837;28;20072;-63
2021/05/15 18:06:18;;;;;;;4.90;3.05;;;;;;;;;;10317015;28;20083;-64
2021/05/15 18:11:17;;;;;;;6.32;3.97;;;;;;;;;;10316938;28;20044;-64
2021/05/15 18:16:17;;;;;;;5.60;3.17;;;;;;;;;;10316869;28;20049;-63
2021/05/15 18:21:14;;;;;;;4.82;2.88;;;;;;;;;;10323842;28;20086;-62
2021/05/15 18:26:13;;;;;;;4.93;4.43;;;;;;;;;;10324734;28;20442;-63
2021/05/15 18:31:11;;;;;;;4.82;4.10;;;;;;;;;;10323963;28;20049;-64
2021/05/15 18:36:09;;;;;;;4.10;2.75;;;;;;;;;;10323770;28;20071;-63
2021/05/15 18:41:07;;;;;;;6.18;5.57;;;;;;;;;;10323612;28;20047;-63
2021/05/15 18:46:07;;;;;;;5.05;3.45;;;;;;;;;;10323358;28;20047;-63
2021/05/15 18:51:05;;;;;;;6.03;2.63;;;;;;;;;;10323188;28;20072;-63
2021/05/15 18:56:06;;;;;;;7.35;3.03;;;;;;;;;;10323246;28;20048;-64
2021/05/15 19:01:03;;;;;;;5.05;2.63;;;;;;;;;;10323435;28;20048;-64
2021/05/15 19:06:05;;;;;;;3.72;2.50;;;;;;;;;;10322772;28;20049;-63
2021/05/15 19:11:03;;;;;;;3.78;2.50;;;;;;;;;;10322502;28;20040;-63
2021/05/15 19:16:01;;;;;;;5.38;2.88;;;;;;;;;;10322651;28;20072;-63
2021/05/15 19:20:59;;;;;;;5.80;2.22;;;;;;;;;;10322067;28;20504;-63
2021/05/15 19:25:58;;;;;;;5.80;2.70;;;;;;;;;;10321828;28;20444;-63
2021/05/15 19:30:57;;;;;;;6.45;3.38;;;;;;;;;;10320877;28;20080;-64
2021/05/15 19:35:55;;;;;;;2.60;1.80;;;;;;;;;;10322053;28;20052;-63
2021/05/15 19:40:53;;;;;;;7.93;3.58;;;;;;;;;;10321192;28;20110;-63
2021/05/15 19:45:52;;;;;;;3.63;2.65;;;;;;;;;;10321330;28;20045;-64
2021/05/15 19:50:50;;;;;;;8.63;3.30;;;;;;;;;;10320769;28;20077;-64
2021/05/15 19:55:48;;;;;;;7.55;2.90;;;;;;;;;;10321253;28;20083;-64
2021/05/15 20:00:46;;;;;;;6.32;2.72;;;;;;;;;;10320250;28;20083;-64
2021/05/15 20:05:45;;;;;;;4.05;2.50;;;;;;;;;;10320305;28;20079;-62
2021/05/15 20:10:45;;;;;;;3.97;2.50;;;;;;;;;;10320604;28;20048;-64
2021/05/15 20:15:43;;;;;;;4.50;2.50;;;;;;;;;;10318917;28;20044;-63
2021/05/15 20:20:41;;;;;;;4.28;3.03;;;;;;;;;;10318964;28;20075;-62
2021/05/15 20:25:40;;;;;;;7.07;3.08;;;;;;;;;;10319749;28;20060;-63
2021/05/15 20:30:38;;;;;;;6.85;4.20;;;;;;;;;;10319441;28;20098;-62
2021/05/15 20:35:35;;;;;;;3.85;3.15;;;;;;;;;;10319698;28;20484;-63
2021/05/15 20:40:33;;;;;;;7.03;3.20;;;;;;;;;;10317969;28;20076;-63
2021/05/15 20:45:32;;;;;;;3.85;3.38;;;;;;;;;;10319859;28;20043;-63
2021/05/15 20:50:30;;;;;;;4.85;3.25;;;;;;;;;;10319667;28;20049;-64
2021/05/15 20:55:29;;;;;;;7.65;3.95;;;;;;;;;;10319096;28;20520;-63
2021/05/15 21:00:31;;;;;;;6.50;4.05;;;;;;;;;;10318618;28;20080;-63
2021/05/15 21:05:30;;;;;;;6.97;4.55;;;;;;;;;;10318784;28;20432;-64
2021/05/15 21:10:29;;;;;;;5.40;4.25;;;;;;;;;;10315858;28;20100;-62
2021/05/15 21:15:26;;;;;;;5.35;4.30;;;;;;;;;;10314197;28;20080;-62
2021/05/15 21:20:25;;;;;;;8.15;4.90;;;;;;;;;;10314628;28;20072;-63
2021/05/15 21:25:23;;;;;;;8.60;3.65;;;;;;;;;;10315074;28;20080;-63
2021/05/15 21:30:21;;;;;;;4.90;4.05;;;;;;;;;;10318317;28;20056;-63
2021/05/15 21:35:19;;;;;;;4.50;4.03;;;;;;;;;;10318111;28;20041;-63
2021/05/15 21:40:17;;;;;;;5.50;4.50;;;;;;;;;;10317770;28;20456;-63
2021/05/15 21:45:17;;;;;;;4.63;4.10;;;;;;;;;;10317725;28;20040;-63
2021/05/15 21:50:15;;;;;;;4.40;3.97;;;;;;;;;;10317628;28;20083;-63
2021/05/15 21:55:14;;;;;;;6.25;5.55;;;;;;;;;;10317133;28;20505;-64
2021/05/15 22:00:28;;;;;;;5.82;5.22;;;;;;;;;;10316940;28;20099;-62
2021/05/15 22:05:26;;;;;;;6.53;5.20;;;;;;;;;;10317569;28;20524;-62
2021/05/15 22:10:24;;;;;;;8.07;5.15;;;;;;;;;;10317704;28;20056;-63
2021/05/15 22:15:24;;;;;;;7.20;5.00;;;;;;;;;;10317072;28;20048;-63
2021/05/15 22:20:23;;;;;;;8.40;4.90;;;;;;;;;;10316818;28;20072;-63
2021/05/15 22:25:21;;;;;;;5.65;4.63;;;;;;;;;;10316862;28;20080;-63
2021/05/15 22:30:21;;;;;;;7.88;4.55;;;;;;;;;;10315697;28;20068;-63
2021/05/15 22:35:19;;;;;;;6.82;5.68;;;;;;;;;;10316633;28;20500;-63
2021/05/15 22:40:20;;;;;;;6.75;5.50;;;;;;;;;;10316619;28;20083;-63
2021/05/15 22:45:23;;;;;;;7.68;5.65;;;;;;;;;;10315379;28;20048;-63
2021/05/15 22:50:21;;;;;;;6.53;5.80;;;;;;;;;;10316462;28;20051;-64
2021/05/15 22:55:20;;;;;;;6.18;4.80;;;;;;;;;;10316313;28;20037;-63
2021/05/15 23:00:20;;;;;;;5.75;4.93;;;;;;;;;;10314314;28;20065;-63
2021/05/15 23:05:18;;;;;;;6.57;5.63;;;;;;;;;;10318657;28;20040;-63
2021/05/15 23:10:17;;;;;;;8.60;4.90;;;;;;;;;;10323659;28;20082;-63
2021/05/15 23:15:15;;;;;;;5.85;4.78;;;;;;;;;;10323251;28;20452;-63
2021/05/15 23:20:12;;;;;;;7.55;5.63;;;;;;;;;;10322132;28;20072;-62
2021/05/15 23:25:10;;;;;;;6.90;5.60;;;;;;;;;;10322304;28;20088;-62
2021/05/15 23:30:11;;;;;;;8.98;6.28;;;;;;;;;;10322738;28;20055;-62
2021/05/15 23:35:10;;;;;;;6.63;5.65;;;;;;;;;;10322497;28;20420;-63
2021/05/15 23:40:09;;;;;;;5.40;4.40;;;;;;;;;;10322356;28;20090;-63
2021/05/15 23:45:07;;;;;;;5.47;4.97;;;;;;;;;;10322024;28;20520;-63
2021/05/15 23:50:07;;;;;;;5.45;4.95;;;;;;;;;;10322090;28;20040;-63
2021/05/15 23:55:06;;;;;;;8.60;5.38;;;;;;;;;;10321870;28;20040;-63
